sensor_id;sensor_type;location;lat;lon;timestamp;temperature;humidity
3310;DHT22;1667;53.238;10.394;2023-06-22T00:02:05;23.60;79.30
3310;DHT22;1667;53.238;10.394;2023-06-22T00:07:05;23.50;79.10
3310;DHT22;1667;53.238;10.394;2023-06-22T00:12:06;23.50;79.40
3310;DHT22;1667;53.238;10.394;2023-06-22T00:17:05;23.50;79.20
3310;DHT22;1667;53.238;10.394;2023-06-22T00:22:05;23.40;79.50
3310;DHT22;1667;53.238;10.394;2023-06-22T00:27:04;23.40;79.50
3310;DHT22;1667;53.238;10.394;2023-06-22T00:32:03;23.40;79.70
3310;DHT22;1667;53.238;10.394;2023-06-22T00:37:02;23.30;79.70
3310;DHT22;1667;53.238;10.394;2023-06-22T00:42:06;23.30;79.90
3310;DHT22;1667;53.238;10.394;2023-06-22T00:47:04;23.20;80.20
3310;DHT22;1667;53.238;10.394;2023-06-22T00:52:05;23.10;80.40
3310;DHT22;1667;53.238;10.394;2023-06-22T00:57:07;23.10;80.50
3310;DHT22;1667;53.238;10.394;2023-06-22T01:02:08;23.10;80.50
3310;DHT22;1667;53.238;10.394;2023-06-22T01:07:13;23.00;80.50
3310;DHT22;1667;53.238;10.394;2023-06-22T01:12:21;23.00;80.80
3310;DHT22;1667;53.238;10.394;2023-06-22T01:17:23;22.90;80.70
3310;DHT22;1667;53.238;10.394;2023-06-22T01:22:25;22.90;80.90
3310;DHT22;1667;53.238;10.394;2023-06-22T01:27:40;22.80;81.00
3310;DHT22;1667;53.238;10.394;2023-06-22T01:32:48;22.70;80.60
3310;DHT22;1667;53.238;10.394;2023-06-22T01:37:48;22.70;81.30
3310;DHT22;1667;53.238;10.394;2023-06-22T01:42:48;22.60;81.30
3310;DHT22;1667;53.238;10.394;2023-06-22T01:47:49;22.60;81.30
3310;DHT22;1667;53.238;10.394;2023-06-22T01:52:48;22.60;81.20
3310;DHT22;1667;53.238;10.394;2023-06-22T01:57:47;22.50;81.50
3310;DHT22;1667;53.238;10.394;2023-06-22T02:02:56;22.40;81.70
3310;DHT22;1667;53.238;10.394;2023-06-22T02:08:06;22.30;81.60
3310;DHT22;1667;53.238;10.394;2023-06-22T02:13:07;22.30;81.80
3310;DHT22;1667;53.238;10.394;2023-06-22T02:18:07;22.30;82.00
3310;DHT22;1667;53.238;10.394;2023-06-22T02:30:02;22.20;81.10
3310;DHT22;1667;53.238;10.394;2023-06-22T02:35:03;22.10;82.00
3310;DHT22;1667;53.238;10.394;2023-06-22T02:40:02;22.00;82.20
3310;DHT22;1667;53.238;10.394;2023-06-22T02:45:01;22.00;82.20
3310;DHT22;1667;53.238;10.394;2023-06-22T02:50:01;21.90;82.70
3310;DHT22;1667;53.238;10.394;2023-06-22T02:55:03;21.80;83.00
3310;DHT22;1667;53.238;10.394;2023-06-22T03:00:03;21.70;83.00
3310;DHT22;1667;53.238;10.394;2023-06-22T03:05:17;21.70;83.30
3310;DHT22;1667;53.238;10.394;2023-06-22T03:10:17;21.70;83.20
3310;DHT22;1667;53.238;10.394;2023-06-22T03:15:16;21.70;82.70
3310;DHT22;1667;53.238;10.394;2023-06-22T03:20:19;21.70;82.80
3310;DHT22;1667;53.238;10.394;2023-06-22T03:25:18;21.70;83.00
3310;DHT22;1667;53.238;10.394;2023-06-22T03:30:18;21.70;83.30
3310;DHT22;1667;53.238;10.394;2023-06-22T03:40:19;21.70;83.50
3310;DHT22;1667;53.238;10.394;2023-06-22T03:45:18;21.60;83.80
3310;DHT22;1667;53.238;10.394;2023-06-22T03:50:17;21.60;83.90
3310;DHT22;1667;53.238;10.394;2023-06-22T03:55:19;21.60;84.40
3310;DHT22;1667;53.238;10.394;2023-06-22T04:00:18;21.60;84.40
3310;DHT22;1667;53.238;10.394;2023-06-22T04:05:16;21.60;84.60
3310;DHT22;1667;53.238;10.394;2023-06-22T04:10:16;21.60;84.90
3310;DHT22;1667;53.238;10.394;2023-06-22T04:15:16;21.70;84.80
3310;DHT22;1667;53.238;10.394;2023-06-22T04:20:14;21.70;85.40
3310;DHT22;1667;53.238;10.394;2023-06-22T04:25:14;21.70;85.30
3310;DHT22;1667;53.238;10.394;2023-06-22T04:30:12;21.80;85.40
3310;DHT22;1667;53.238;10.394;2023-06-22T04:35:13;21.90;85.50
3310;DHT22;1667;53.238;10.394;2023-06-22T04:40:13;21.90;85.60
3310;DHT22;1667;53.238;10.394;2023-06-22T04:45:12;22.00;85.70
3310;DHT22;1667;53.238;10.394;2023-06-22T04:50:10;22.00;85.60
3310;DHT22;1667;53.238;10.394;2023-06-22T04:55:10;22.10;85.90
3310;DHT22;1667;53.238;10.394;2023-06-22T05:00:12;22.20;86.00
3310;DHT22;1667;53.238;10.394;2023-06-22T05:05:14;22.20;86.00
3310;DHT22;1667;53.238;10.394;2023-06-22T05:10:15;22.30;86.00
3310;DHT22;1667;53.238;10.394;2023-06-22T05:15:13;22.40;86.30
3310;DHT22;1667;53.238;10.394;2023-06-22T05:20:12;22.50;89.00
3310;DHT22;1667;53.238;10.394;2023-06-22T05:25:12;22.60;90.50
3310;DHT22;1667;53.238;10.394;2023-06-22T05:30:13;22.70;90.80
3310;DHT22;1667;53.238;10.394;2023-06-22T05:35:16;22.90;90.70
3310;DHT22;1667;53.238;10.394;2023-06-22T05:40:14;23.00;90.00
3310;DHT22;1667;53.238;10.394;2023-06-22T05:45:15;23.10;88.70
3310;DHT22;1667;53.238;10.394;2023-06-22T05:50:13;23.30;90.70
3310;DHT22;1667;53.238;10.394;2023-06-22T05:55:12;23.60;89.90
3310;DHT22;1667;53.238;10.394;2023-06-22T06:00:11;23.70;90.20
3310;DHT22;1667;53.238;10.394;2023-06-22T06:05:12;24.00;89.30
3310;DHT22;1667;53.238;10.394;2023-06-22T06:10:11;24.10;89.70
3310;DHT22;1667;53.238;10.394;2023-06-22T06:15:10;24.20;90.00
3310;DHT22;1667;53.238;10.394;2023-06-22T06:20:09;24.40;90.50
3310;DHT22;1667;53.238;10.394;2023-06-22T06:25:10;24.60;89.50
3310;DHT22;1667;53.238;10.394;2023-06-22T06:30:15;24.80;90.30
3310;DHT22;1667;53.238;10.394;2023-06-22T06:35:14;25.20;88.90
3310;DHT22;1667;53.238;10.394;2023-06-22T06:40:16;25.20;88.80
3310;DHT22;1667;53.238;10.394;2023-06-22T06:45:17;25.50;86.50
3310;DHT22;1667;53.238;10.394;2023-06-22T06:50:17;25.50;85.80
3310;DHT22;1667;53.238;10.394;2023-06-22T06:55:17;25.70;87.20
3310;DHT22;1667;53.238;10.394;2023-06-22T07:00:17;25.80;86.20
3310;DHT22;1667;53.238;10.394;2023-06-22T07:05:16;26.00;85.10
3310;DHT22;1667;53.238;10.394;2023-06-22T07:10:16;26.20;85.50
3310;DHT22;1667;53.238;10.394;2023-06-22T07:15:15;26.40;84.50
3310;DHT22;1667;53.238;10.394;2023-06-22T07:20:13;26.60;84.00
3310;DHT22;1667;53.238;10.394;2023-06-22T07:25:11;26.80;85.90
3310;DHT22;1667;53.238;10.394;2023-06-22T07:30:14;27.20;85.40
3310;DHT22;1667;53.238;10.394;2023-06-22T07:35:12;27.40;82.00
3310;DHT22;1667;53.238;10.394;2023-06-22T07:40:12;27.60;83.20
3310;DHT22;1667;53.238;10.394;2023-06-22T07:45:10;27.90;82.10
3310;DHT22;1667;53.238;10.394;2023-06-22T07:50:11;28.10;82.00
3310;DHT22;1667;53.238;10.394;2023-06-22T07:55:09;28.50;81.60
3310;DHT22;1667;53.238;10.394;2023-06-22T08:00:09;28.90;79.80
3310;DHT22;1667;53.238;10.394;2023-06-22T08:05:12;29.10;79.20
3310;DHT22;1667;53.238;10.394;2023-06-22T08:10:19;29.40;76.60
3310;DHT22;1667;53.238;10.394;2023-06-22T08:15:18;29.60;78.40
3310;DHT22;1667;53.238;10.394;2023-06-22T08:20:18;29.50;76.60
3310;DHT22;1667;53.238;10.394;2023-06-22T08:25:16;29.90;74.20
3310;DHT22;1667;53.238;10.394;2023-06-22T08:30:16;30.00;75.20
3310;DHT22;1667;53.238;10.394;2023-06-22T08:35:15;30.10;76.70
3310;DHT22;1667;53.238;10.394;2023-06-22T08:40:15;30.50;74.80
3310;DHT22;1667;53.238;10.394;2023-06-22T08:45:14;30.80;73.30
3310;DHT22;1667;53.238;10.394;2023-06-22T08:50:13;31.20;71.90
3310;DHT22;1667;53.238;10.394;2023-06-22T08:55:11;31.40;72.20
3310;DHT22;1667;53.238;10.394;2023-06-22T09:00:14;31.60;72.60
3310;DHT22;1667;53.238;10.394;2023-06-22T09:05:17;31.60;72.40
3310;DHT22;1667;53.238;10.394;2023-06-22T09:10:16;31.80;71.00
3310;DHT22;1667;53.238;10.394;2023-06-22T09:15:16;32.00;70.20
3310;DHT22;1667;53.238;10.394;2023-06-22T09:20:15;32.20;70.80
3310;DHT22;1667;53.238;10.394;2023-06-22T09:25:14;32.40;70.70
3310;DHT22;1667;53.238;10.394;2023-06-22T09:30:12;32.50;69.20
3310;DHT22;1667;53.238;10.394;2023-06-22T09:35:13;32.60;70.10
3310;DHT22;1667;53.238;10.394;2023-06-22T09:40:11;32.70;67.00
3310;DHT22;1667;53.238;10.394;2023-06-22T09:45:13;33.00;67.20
3310;DHT22;1667;53.238;10.394;2023-06-22T09:50:13;33.10;68.40
3310;DHT22;1667;53.238;10.394;2023-06-22T09:55:11;33.30;68.00
3310;DHT22;1667;53.238;10.394;2023-06-22T10:00:11;33.40;67.80
3310;DHT22;1667;53.238;10.394;2023-06-22T10:05:10;33.70;67.10
3310;DHT22;1667;53.238;10.394;2023-06-22T10:10:12;33.80;68.30
3310;DHT22;1667;53.238;10.394;2023-06-22T10:15:10;34.10;64.90
3310;DHT22;1667;53.238;10.394;2023-06-22T10:20:10;34.20;66.20
3310;DHT22;1667;53.238;10.394;2023-06-22T10:25:12;34.30;63.80
3310;DHT22;1667;53.238;10.394;2023-06-22T10:30:12;34.70;63.60
3310;DHT22;1667;53.238;10.394;2023-06-22T10:35:11;34.80;62.90
3310;DHT22;1667;53.238;10.394;2023-06-22T10:40:24;35.20;62.00
3310;DHT22;1667;53.238;10.394;2023-06-22T10:45:23;35.20;61.30
3310;DHT22;1667;53.238;10.394;2023-06-22T10:50:21;35.20;61.80
3310;DHT22;1667;53.238;10.394;2023-06-22T10:55:21;35.10;61.40
3310;DHT22;1667;53.238;10.394;2023-06-22T11:00:21;35.00;61.50
3310;DHT22;1667;53.238;10.394;2023-06-22T11:05:20;35.00;61.00
3310;DHT22;1667;53.238;10.394;2023-06-22T11:10:18;35.00;61.70
3310;DHT22;1667;53.238;10.394;2023-06-22T11:15:17;35.20;59.80
3310;DHT22;1667;53.238;10.394;2023-06-22T11:20:17;35.30;60.90
3310;DHT22;1667;53.238;10.394;2023-06-22T11:25:15;35.20;62.60
3310;DHT22;1667;53.238;10.394;2023-06-22T11:30:14;35.10;62.00
3310;DHT22;1667;53.238;10.394;2023-06-22T11:35:13;35.20;61.90
3310;DHT22;1667;53.238;10.394;2023-06-22T11:40:14;35.40;60.10
3310;DHT22;1667;53.238;10.394;2023-06-22T11:45:14;35.60;60.00
3310;DHT22;1667;53.238;10.394;2023-06-22T11:50:14;35.80;59.80
3310;DHT22;1667;53.238;10.394;2023-06-22T11:55:14;35.80;60.10
3310;DHT22;1667;53.238;10.394;2023-06-22T12:00:13;35.70;59.70
3310;DHT22;1667;53.238;10.394;2023-06-22T12:05:15;35.60;60.20
3310;DHT22;1667;53.238;10.394;2023-06-22T12:10:15;35.50;60.90
3310;DHT22;1667;53.238;10.394;2023-06-22T12:15:13;35.40;59.90
3310;DHT22;1667;53.238;10.394;2023-06-22T12:20:12;35.30;60.40
3310;DHT22;1667;53.238;10.394;2023-06-22T12:25:11;35.20;60.00
3310;DHT22;1667;53.238;10.394;2023-06-22T12:30:11;35.10;60.20
3310;DHT22;1667;53.238;10.394;2023-06-22T12:35:09;34.90;59.80
3310;DHT22;1667;53.238;10.394;2023-06-22T12:40:11;34.70;60.30
3310;DHT22;1667;53.238;10.394;2023-06-22T12:45:12;34.50;60.10
3310;DHT22;1667;53.238;10.394;2023-06-22T12:50:10;34.40;60.20
3310;DHT22;1667;53.238;10.394;2023-06-22T12:55:09;34.30;60.80
3310;DHT22;1667;53.238;10.394;2023-06-22T13:00:09;34.20;61.90
3310;DHT22;1667;53.238;10.394;2023-06-22T13:12:04;34.00;61.80
3310;DHT22;1667;53.238;10.394;2023-06-22T13:23:51;33.70;61.90
3310;DHT22;1667;53.238;10.394;2023-06-22T13:28:52;33.50;62.20
3310;DHT22;1667;53.238;10.394;2023-06-22T13:33:51;33.40;62.60
3310;DHT22;1667;53.238;10.394;2023-06-22T13:38:49;33.20;62.60
3310;DHT22;1667;53.238;10.394;2023-06-22T13:43:48;33.00;63.20
3310;DHT22;1667;53.238;10.394;2023-06-22T13:48:48;32.80;63.80
3310;DHT22;1667;53.238;10.394;2023-06-22T13:53:46;32.70;64.20
3310;DHT22;1667;53.238;10.394;2023-06-22T13:58:45;32.50;64.20
3310;DHT22;1667;53.238;10.394;2023-06-22T14:03:43;32.40;64.40
3310;DHT22;1667;53.238;10.394;2023-06-22T14:08:45;32.30;64.80
3310;DHT22;1667;53.238;10.394;2023-06-22T14:13:44;32.20;65.00
3310;DHT22;1667;53.238;10.394;2023-06-22T14:18:42;32.10;65.20
3310;DHT22;1667;53.238;10.394;2023-06-22T14:23:41;32.00;65.30
3310;DHT22;1667;53.238;10.394;2023-06-22T14:28:40;31.90;65.40
3310;DHT22;1667;53.238;10.394;2023-06-22T14:33:41;31.80;65.30
3310;DHT22;1667;53.238;10.394;2023-06-22T14:38:39;31.80;65.20
3310;DHT22;1667;53.238;10.394;2023-06-22T14:43:38;31.70;65.50
3310;DHT22;1667;53.238;10.394;2023-06-22T14:48:38;31.70;65.40
3310;DHT22;1667;53.238;10.394;2023-06-22T14:53:36;31.80;64.80
3310;DHT22;1667;53.238;10.394;2023-06-22T14:58:35;31.70;65.00
3310;DHT22;1667;53.238;10.394;2023-06-22T15:03:34;31.70;65.20
3310;DHT22;1667;53.238;10.394;2023-06-22T15:08:36;31.70;65.10
3310;DHT22;1667;53.238;10.394;2023-06-22T15:13:35;31.70;65.40
3310;DHT22;1667;53.238;10.394;2023-06-22T15:18:36;31.70;65.40
3310;DHT22;1667;53.238;10.394;2023-06-22T15:23:36;31.50;65.50
3310;DHT22;1667;53.238;10.394;2023-06-22T15:28:36;31.40;65.70
3310;DHT22;1667;53.238;10.394;2023-06-22T15:33:35;31.30;66.60
3310;DHT22;1667;53.238;10.394;2023-06-22T15:38:34;31.20;67.10
3310;DHT22;1667;53.238;10.394;2023-06-22T15:43:34;31.10;67.60
3310;DHT22;1667;53.238;10.394;2023-06-22T15:48:33;30.80;68.20
3310;DHT22;1667;53.238;10.394;2023-06-22T15:53:31;30.60;68.70
3310;DHT22;1667;53.238;10.394;2023-06-22T15:58:30;30.50;69.30
3310;DHT22;1667;53.238;10.394;2023-06-22T16:03:29;30.40;70.50
3310;DHT22;1667;53.238;10.394;2023-06-22T16:08:28;30.40;73.60
3310;DHT22;1667;53.238;10.394;2023-06-22T16:13:28;30.20;75.90
3310;DHT22;1667;53.238;10.394;2023-06-22T16:18:26;30.00;77.00
3310;DHT22;1667;53.238;10.394;2023-06-22T16:23:26;29.80;78.20
3310;DHT22;1667;53.238;10.394;2023-06-22T16:28:25;29.50;79.00
3310;DHT22;1667;53.238;10.394;2023-06-22T16:33:24;29.30;79.10
3310;DHT22;1667;53.238;10.394;2023-06-22T16:38:23;29.10;80.50
3310;DHT22;1667;53.238;10.394;2023-06-22T16:43:23;28.90;80.70
3310;DHT22;1667;53.238;10.394;2023-06-22T16:48:21;28.70;81.60
3310;DHT22;1667;53.238;10.394;2023-06-22T16:53:20;28.60;82.20
3310;DHT22;1667;53.238;10.394;2023-06-22T16:58:20;28.60;82.10
3310;DHT22;1667;53.238;10.394;2023-06-22T17:03:25;28.60;82.00
3310;DHT22;1667;53.238;10.394;2023-06-22T17:08:27;28.50;83.00
3310;DHT22;1667;53.238;10.394;2023-06-22T17:13:27;28.40;83.10
3310;DHT22;1667;53.238;10.394;2023-06-22T17:18:28;28.30;83.50
3310;DHT22;1667;53.238;10.394;2023-06-22T17:23:27;28.00;86.30
3310;DHT22;1667;53.238;10.394;2023-06-22T17:28:26;27.70;87.00
3310;DHT22;1667;53.238;10.394;2023-06-22T17:33:27;27.50;86.90
3310;DHT22;1667;53.238;10.394;2023-06-22T17:38:26;27.40;87.40
3310;DHT22;1667;53.238;10.394;2023-06-22T17:43:24;27.10;89.00
3310;DHT22;1667;53.238;10.394;2023-06-22T17:48:23;26.90;88.60
3310;DHT22;1667;53.238;10.394;2023-06-22T17:53:26;26.80;89.70
3310;DHT22;1667;53.238;10.394;2023-06-22T17:58:25;26.60;89.80
3310;DHT22;1667;53.238;10.394;2023-06-22T18:03:25;26.40;90.90
3310;DHT22;1667;53.238;10.394;2023-06-22T18:08:26;26.10;91.30
3310;DHT22;1667;53.238;10.394;2023-06-22T18:13:25;25.80;91.70
3310;DHT22;1667;53.238;10.394;2023-06-22T18:18:25;25.50;91.90
3310;DHT22;1667;53.238;10.394;2023-06-22T18:23:25;25.10;91.70
3310;DHT22;1667;53.238;10.394;2023-06-22T18:28:25;24.90;91.80
3310;DHT22;1667;53.238;10.394;2023-06-22T18:33:24;24.60;91.70
3310;DHT22;1667;53.238;10.394;2023-06-22T18:38:23;24.30;91.70
3310;DHT22;1667;53.238;10.394;2023-06-22T18:43:23;23.90;92.00
3310;DHT22;1667;53.238;10.394;2023-06-22T18:48:23;23.70;92.30
3310;DHT22;1667;53.238;10.394;2023-06-22T18:53:27;23.50;92.50
3310;DHT22;1667;53.238;10.394;2023-06-22T18:58:28;23.50;92.60
3310;DHT22;1667;53.238;10.394;2023-06-22T19:03:29;23.40;92.40
3310;DHT22;1667;53.238;10.394;2023-06-22T19:14:08;23.20;92.20
3310;DHT22;1667;53.238;10.394;2023-06-22T19:19:13;23.20;92.50
3310;DHT22;1667;53.238;10.394;2023-06-22T19:24:27;23.20;92.50
3310;DHT22;1667;53.238;10.394;2023-06-22T19:29:27;23.10;92.30
3310;DHT22;1667;53.238;10.394;2023-06-22T19:34:27;23.10;92.50
3310;DHT22;1667;53.238;10.394;2023-06-22T19:39:34;23.00;92.50
3310;DHT22;1667;53.238;10.394;2023-06-22T19:44:34;23.10;92.40
3310;DHT22;1667;53.238;10.394;2023-06-22T19:49:33;23.10;92.50
3310;DHT22;1667;53.238;10.394;2023-06-22T19:54:32;23.00;92.50
3310;DHT22;1667;53.238;10.394;2023-06-22T19:59:30;23.00;92.70
3310;DHT22;1667;53.238;10.394;2023-06-22T20:04:32;23.10;92.80
3310;DHT22;1667;53.238;10.394;2023-06-22T20:09:30;23.20;92.40
3310;DHT22;1667;53.238;10.394;2023-06-22T20:14:33;23.10;92.60
3310;DHT22;1667;53.238;10.394;2023-06-22T20:19:37;23.10;92.80
3310;DHT22;1667;53.238;10.394;2023-06-22T20:24:38;23.00;92.90
3310;DHT22;1667;53.238;10.394;2023-06-22T20:29:37;23.10;92.80
3310;DHT22;1667;53.238;10.394;2023-06-22T20:34:42;23.10;92.70
3310;DHT22;1667;53.238;10.394;2023-06-22T20:39:42;23.10;92.80
3310;DHT22;1667;53.238;10.394;2023-06-22T20:44:45;22.70;93.30
3310;DHT22;1667;53.238;10.394;2023-06-22T20:49:49;22.40;94.00
3310;DHT22;1667;53.238;10.394;2023-06-22T20:54:47;22.20;94.40
3310;DHT22;1667;53.238;10.394;2023-06-22T20:59:46;22.10;94.70
3310;DHT22;1667;53.238;10.394;2023-06-22T21:04:45;22.00;94.90
3310;DHT22;1667;53.238;10.394;2023-06-22T21:09:47;21.90;94.90
3310;DHT22;1667;53.238;10.394;2023-06-22T21:14:48;21.80;95.20
3310;DHT22;1667;53.238;10.394;2023-06-22T21:19:47;22.00;94.90
3310;DHT22;1667;53.238;10.394;2023-06-22T21:25:04;22.20;94.80
3310;DHT22;1667;53.238;10.394;2023-06-22T21:30:05;22.00;95.10
3310;DHT22;1667;53.238;10.394;2023-06-22T21:35:04;21.70;95.90
3310;DHT22;1667;53.238;10.394;2023-06-22T21:40:05;21.40;96.30
3310;DHT22;1667;53.238;10.394;2023-06-22T21:45:04;21.10;97.20
3310;DHT22;1667;53.238;10.394;2023-06-22T21:50:03;21.00;97.30
3310;DHT22;1667;53.238;10.394;2023-06-22T21:55:04;21.00;97.50
3310;DHT22;1667;53.238;10.394;2023-06-22T22:00:03;21.10;97.20
3310;DHT22;1667;53.238;10.394;2023-06-22T22:05:04;21.20;97.20
3310;DHT22;1667;53.238;10.394;2023-06-22T22:10:06;21.30;97.00
3310;DHT22;1667;53.238;10.394;2023-06-22T22:15:06;21.50;96.80
3310;DHT22;1667;53.238;10.394;2023-06-22T22:20:06;21.60;96.50
3310;DHT22;1667;53.238;10.394;2023-06-22T22:25:08;21.80;95.90
3310;DHT22;1667;53.238;10.394;2023-06-22T22:30:07;22.00;95.70
3310;DHT22;1667;53.238;10.394;2023-06-22T22:35:06;21.90;95.60
3310;DHT22;1667;53.238;10.394;2023-06-22T22:40:08;21.90;95.80
3310;DHT22;1667;53.238;10.394;2023-06-22T22:45:08;22.00;95.60
3310;DHT22;1667;53.238;10.394;2023-06-22T22:50:08;22.10;95.60
3310;DHT22;1667;53.238;10.394;2023-06-22T22:55:08;22.10;95.60
3310;DHT22;1667;53.238;10.394;2023-06-22T23:00:11;22.00;95.80
3310;DHT22;1667;53.238;10.394;2023-06-22T23:05:11;21.90;95.90
3310;DHT22;1667;53.238;10.394;2023-06-22T23:10:11;21.80;96.20
3310;DHT22;1667;53.238;10.394;2023-06-22T23:15:10;21.80;96.30
3310;DHT22;1667;53.238;10.394;2023-06-22T23:20:10;21.70;96.70
3310;DHT22;1667;53.238;10.394;2023-06-22T23:25:13;21.70;96.90
3310;DHT22;1667;53.238;10.394;2023-06-22T23:30:12;21.60;97.00
3310;DHT22;1667;53.238;10.394;2023-06-22T23:35:11;21.50;97.30
3310;DHT22;1667;53.238;10.394;2023-06-22T23:40:10;21.40;97.60
3310;DHT22;1667;53.238;10.394;2023-06-22T23:45:16;21.30;98.00
3310;DHT22;1667;53.238;10.394;2023-06-22T23:50:17;21.20;98.30
3310;DHT22;1667;53.238;10.394;2023-06-22T23:55:16;21.20;98.50
